Pagrindinis puslapis
METAR-TAF:

METAR-TAF

Oro uostai :

Odensė, Danija

platuma: 55-29N, ilguma: 010-20E, Aukštis: 17 m

Dabartinis oras

Ataskaita buvo paskelbta 35 minutes, ne 13:50 UTC
Vėjas 3 kt iš Pietų
Temperatūra 6°C
Drėgmė 93%
Slėgis 1015 hPa
Matomumas 10 km arba daugiau
nėra debesų žemiau 1500 m ir nėra kamuolinių lietaus debesų

METAR: EKOD 171350Z 17003KT CAVOK 06/05 Q1015

Laikas: 15:25 (14:25 UTC)

Prognozė

Ataskaita buvo paskelbta 5 valandos ir 26 minutes, ne 08:59 UTC
Prognozė galioja nuo 17 metu 09 UTC su 17 metu 14 UTC
Vėjas 8 kt iš Pietų
Matomumas: 7000 m

TAF: EKOD 170859Z 1709/1714 18008KT 7000 NSC

Orai ataskaitas ir orų prognozės (METAR, TAF).

turimą stotys yra geltonos ir raudonos taškus žemėlapyje.

Perkelti pele per norėdami pamatyti stoties vardą.

Tada spustelėkite, norėdami matyti oro stebėjimo ir prognozės.

Norėdami pakeisti žemėlapį: spustelėkite ant žalios mygtukų su juodo kryžiaus žemyn,; žalią mygtuką su brūkšneliu, jei norite nutolinti; arba žalių rodyklių gretimoms žemėlapius.


METAR-TAF: